createdAt,value
2019-03-13T00:01:14.245Z,7.80
2019-03-13T00:03:41.253Z,7.90
2019-03-13T00:06:07.992Z,8.30
2019-03-13T00:08:34.852Z,7.90
2019-03-13T00:11:01.718Z,7.80
2019-03-13T00:13:28.801Z,7.90
2019-03-13T00:15:55.554Z,8.10
2019-03-13T00:18:22.530Z,8.20
2019-03-13T00:20:49.477Z,8.20
2019-03-13T00:23:16.228Z,8.30
2019-03-13T00:25:43.181Z,8.20
2019-03-13T00:28:10.178Z,8.20
2019-03-13T00:30:37.460Z,8.20
2019-03-13T00:33:04.545Z,8.30
2019-03-13T00:35:31.540Z,8.20
2019-03-13T00:37:58.376Z,8.20
2019-03-13T00:40:25.232Z,8.20
2019-03-13T00:42:52.222Z,8.20
2019-03-13T00:45:19.467Z,8.20
2019-03-13T00:47:46.216Z,8.20
2019-03-13T00:50:21.378Z,8.10
2019-03-13T00:52:48.125Z,8.00
2019-03-13T00:55:14.877Z,8.10
2019-03-13T00:57:41.903Z,8.10
2019-03-13T01:00:09.662Z,8.20
2019-03-13T01:02:41.288Z,8.20
2019-03-13T01:05:14.824Z,8.20
2019-03-13T01:07:41.660Z,8.30
2019-03-13T01:10:08.833Z,8.20
2019-03-13T01:12:35.835Z,8.30
2019-03-13T01:15:04.437Z,8.30
2019-03-13T01:17:31.435Z,8.30
2019-03-13T01:19:58.293Z,8.30
2019-03-13T01:22:25.487Z,8.30
2019-03-13T01:24:52.339Z,8.30
2019-03-13T01:27:19.093Z,8.30
2019-03-13T01:29:46.172Z,8.20
2019-03-13T01:32:32.691Z,8.30
2019-03-13T01:35:04.571Z,8.40
2019-03-13T01:37:31.576Z,8.40
2019-03-13T01:39:58.322Z,8.40
2019-03-13T01:42:25.300Z,8.30
2019-03-13T01:44:52.163Z,8.40
2019-03-13T01:47:18.960Z,8.40
2019-03-13T01:49:46.059Z,8.30
2019-03-13T01:52:13.151Z,8.30
2019-03-13T01:54:40.184Z,8.30
2019-03-13T01:57:06.944Z,8.30
2019-03-13T01:59:33.801Z,8.30
2019-03-13T02:02:00.662Z,8.40
2019-03-13T02:04:27.405Z,8.40
2019-03-13T02:06:54.169Z,8.30
2019-03-13T02:09:21.161Z,8.40
2019-03-13T02:11:48.476Z,8.50
2019-03-13T02:14:15.321Z,8.50
2019-03-13T02:16:42.409Z,8.50
2019-03-13T02:19:09.364Z,8.30
2019-03-13T02:21:36.108Z,8.20
2019-03-13T02:24:03.075Z,8.10
2019-03-13T02:26:29.808Z,7.70
2019-03-13T02:28:56.574Z,7.30
2019-03-13T02:31:23.436Z,7.10
2019-03-13T02:33:50.623Z,6.90
2019-03-13T02:36:17.370Z,6.80
2019-03-13T02:38:44.125Z,6.70
2019-03-13T02:41:11.137Z,6.70
2019-03-13T02:43:38.233Z,6.60
2019-03-13T02:46:05.081Z,6.50
2019-03-13T02:48:32.065Z,6.40
2019-03-13T02:50:59.056Z,6.40
2019-03-13T02:53:25.817Z,6.40
2019-03-13T02:55:52.570Z,6.40
2019-03-13T02:58:19.521Z,6.40
2019-03-13T03:01:14.826Z,6.30
2019-03-13T03:03:45.994Z,6.30
2019-03-13T03:06:12.750Z,6.20
2019-03-13T03:08:39.507Z,6.20
2019-03-13T03:11:06.254Z,6.10
2019-03-13T03:13:33.014Z,6.10
2019-03-13T03:16:00.006Z,6.20
2019-03-13T03:18:27.020Z,6.20
2019-03-13T03:20:53.753Z,6.20
2019-03-13T03:23:20.502Z,6.10
2019-03-13T03:28:14.339Z,5.70
2019-03-13T03:30:41.213Z,5.70
2019-03-13T03:33:08.154Z,5.50
2019-03-13T03:35:35.131Z,5.30
2019-03-13T03:38:02.124Z,5.10
2019-03-13T03:40:28.978Z,4.90
2019-03-13T03:42:55.725Z,4.70
2019-03-13T03:45:22.682Z,4.60
2019-03-13T03:47:49.460Z,4.60
2019-03-13T03:50:16.953Z,4.60
2019-03-13T03:52:44.249Z,4.50
2019-03-13T03:55:11.322Z,4.60
2019-03-13T03:57:38.519Z,4.60
2019-03-13T04:00:05.595Z,4.70
2019-03-13T04:02:32.384Z,4.60
2019-03-13T04:04:59.473Z,4.70
2019-03-13T04:07:26.723Z,4.70
2019-03-13T04:09:53.664Z,4.60
2019-03-13T04:12:22.457Z,4.70
2019-03-13T04:14:49.296Z,4.80
2019-03-13T04:17:16.301Z,4.70
2019-03-13T04:19:43.144Z,4.80
2019-03-13T04:22:09.906Z,4.80
2019-03-13T04:24:36.910Z,4.90
2019-03-13T04:27:04.004Z,4.90
2019-03-13T04:29:30.752Z,5.00
2019-03-13T04:31:57.613Z,5.00
2019-03-13T04:34:24.598Z,5.00
2019-03-13T04:36:51.382Z,4.90
2019-03-13T04:39:18.135Z,4.80
2019-03-13T04:41:44.864Z,4.80
2019-03-13T04:44:11.930Z,4.80
2019-03-13T04:46:38.820Z,4.70
2019-03-13T04:49:05.829Z,4.60
2019-03-13T04:51:32.589Z,4.50
2019-03-13T04:53:59.341Z,4.60
2019-03-13T04:56:26.908Z,4.60
2019-03-13T04:58:53.766Z,4.60
2019-03-13T05:01:20.513Z,4.60
2019-03-13T05:03:47.506Z,4.50
2019-03-13T05:06:19.795Z,4.50
2019-03-13T05:08:50.526Z,4.40
2019-03-13T05:11:17.367Z,4.30
2019-03-13T05:13:44.241Z,4.30
2019-03-13T05:16:11.085Z,4.30
2019-03-13T05:18:37.861Z,4.30
2019-03-13T05:21:04.641Z,4.30
2019-03-13T05:23:31.585Z,4.30
2019-03-13T05:25:58.462Z,4.40
2019-03-13T05:28:25.221Z,4.50
2019-03-13T05:30:53.269Z,4.50
2019-03-13T05:33:20.154Z,4.50
2019-03-13T05:35:46.976Z,4.50
2019-03-13T05:38:13.728Z,4.60
2019-03-13T05:40:40.576Z,4.60
2019-03-13T05:43:07.434Z,4.50
2019-03-13T05:45:34.553Z,4.50
2019-03-13T05:48:01.317Z,4.40
2019-03-13T05:50:28.072Z,4.40
2019-03-13T05:52:54.824Z,4.40
2019-03-13T05:55:21.669Z,4.40
2019-03-13T05:57:48.686Z,4.40
2019-03-13T06:00:16.988Z,4.40
2019-03-13T06:02:43.750Z,4.30
2019-03-13T06:05:10.641Z,4.30
2019-03-13T06:07:37.591Z,4.30
2019-03-13T06:10:04.825Z,4.70
2019-03-13T06:12:31.856Z,5.90
2019-03-13T06:14:58.698Z,5.80
2019-03-13T06:17:25.957Z,6.10
2019-03-13T06:19:52.709Z,6.70
2019-03-13T06:22:19.799Z,6.60
2019-03-13T06:24:46.573Z,6.40
2019-03-13T06:27:13.330Z,6.50
2019-03-13T06:29:40.070Z,7.20
2019-03-13T06:32:06.827Z,6.50
2019-03-13T06:34:33.818Z,6.80
2019-03-13T06:37:00.574Z,6.20
2019-03-13T06:39:27.332Z,5.80
2019-03-13T06:41:54.160Z,5.50
2019-03-13T06:44:20.945Z,5.40
2019-03-13T06:46:47.969Z,5.30
2019-03-13T06:49:14.827Z,5.30
2019-03-13T06:51:41.571Z,5.30
2019-03-13T06:54:08.561Z,5.30
2019-03-13T06:56:35.330Z,5.30
2019-03-13T06:59:13.248Z,5.40
2019-03-13T07:01:54.588Z,5.50
2019-03-13T07:04:39.184Z,5.50
2019-03-13T07:07:24.053Z,5.60
2019-03-13T07:09:56.436Z,5.60
2019-03-13T07:12:33.107Z,5.60
2019-03-13T07:15:19.530Z,5.80
2019-03-13T07:18:08.991Z,5.90
2019-03-13T07:20:52.889Z,6.70
2019-03-13T07:23:32.778Z,6.40
2019-03-13T07:26:25.154Z,7.10
2019-03-13T07:37:10.581Z,6.30
2019-03-13T07:39:56.981Z,6.40
2019-03-13T07:42:29.825Z,6.20
2019-03-13T07:45:16.482Z,6.20
2019-03-13T07:48:05.764Z,6.30
2019-03-13T07:50:40.824Z,6.40
2019-03-13T07:53:33.445Z,6.30
2019-03-13T07:56:09.518Z,6.40
2019-03-13T07:58:58.540Z,6.50
2019-03-13T08:01:30.649Z,7.50
2019-03-13T08:04:05.666Z,7.50
2019-03-13T08:06:54.864Z,7.20
2019-03-13T08:09:32.299Z,6.90
2019-03-13T08:12:17.406Z,6.80
2019-03-13T08:15:04.078Z,6.70
2019-03-13T08:17:37.344Z,6.60
2019-03-13T08:20:12.625Z,7.10
2019-03-13T08:23:01.656Z,9.80
2019-03-13T08:28:27.201Z,10.50
2019-03-13T08:39:21.729Z,12.30
2019-03-13T08:42:00.154Z,12.20
2019-03-13T08:56:06.091Z,9.40
2019-03-13T08:58:42.985Z,8.80
2019-03-13T09:06:44.403Z,10.30
2019-03-13T09:09:29.305Z,11.10
2019-03-13T09:14:44.686Z,11.00
2019-03-13T09:26:02.086Z,7.70
2019-03-13T09:28:51.369Z,7.60
2019-03-13T09:31:49.438Z,7.50
2019-03-13T09:34:36.408Z,7.70
2019-03-13T09:37:08.779Z,8.10
2019-03-13T09:39:49.197Z,8.00
2019-03-13T09:42:35.857Z,7.70
2019-03-13T09:45:14.900Z,7.70
2019-03-13T09:47:48.693Z,7.40
2019-03-13T09:50:29.397Z,7.40
2019-03-13T09:53:18.665Z,7.40
2019-03-13T09:58:38.124Z,7.30
2019-03-13T10:01:42.772Z,7.50
2019-03-13T10:04:27.763Z,7.80
2019-03-13T10:07:09.978Z,8.50
2019-03-13T10:09:44.257Z,8.50
2019-03-13T10:20:37.775Z,11.00
2019-03-13T10:26:08.657Z,10.10
2019-03-13T10:28:47.793Z,10.30
2019-03-13T10:31:30.059Z,11.30
2019-03-13T10:44:41.714Z,9.40
2019-03-13T10:47:30.746Z,11.70
2019-03-13T10:50:05.990Z,9.90
2019-03-13T10:58:21.895Z,10.00
2019-03-13T11:01:08.593Z,12.00
2019-03-13T11:18:10.751Z,11.30
2019-03-13T11:23:42.496Z,9.30
2019-03-13T11:26:33.846Z,9.10
2019-03-13T11:29:07.202Z,8.80
2019-03-13T11:32:02.676Z,9.70
2019-03-13T11:34:43.345Z,11.30
2019-03-13T11:37:26.882Z,11.20
2019-03-13T11:40:16.497Z,12.60
2019-03-13T11:43:05.737Z,12.70
2019-03-13T11:45:49.936Z,13.50
2019-03-13T11:48:54.432Z,12.30
2019-03-13T11:51:39.753Z,11.90
2019-03-13T11:57:01.722Z,9.30
2019-03-13T11:59:50.757Z,8.70
2019-03-13T12:02:29.573Z,8.40
2019-03-13T12:05:34.290Z,8.50
2019-03-13T12:08:23.482Z,8.50
2019-03-13T12:11:16.021Z,8.70
2019-03-13T12:14:05.493Z,8.80
2019-03-13T12:19:19.536Z,8.40
2019-03-13T12:22:08.544Z,8.90
2019-03-13T12:24:43.308Z,8.70
2019-03-13T12:27:33.158Z,8.00
2019-03-13T12:41:38.688Z,7.70
2019-03-13T12:44:15.142Z,7.70
2019-03-13T12:46:59.734Z,7.70
2019-03-13T12:49:44.696Z,7.70
2019-03-13T12:52:43.113Z,7.70
2019-03-13T12:55:29.831Z,7.70
2019-03-13T12:58:12.581Z,8.30
2019-03-13T13:00:52.893Z,8.30
2019-03-13T13:03:32.300Z,8.50
2019-03-13T13:20:06.806Z,9.50
2019-03-13T13:22:33.668Z,9.40
2019-03-13T13:25:00.437Z,9.30
2019-03-13T13:27:27.526Z,9.20
2019-03-13T13:29:54.598Z,9.30
2019-03-13T13:32:21.440Z,9.30
2019-03-13T13:34:48.666Z,9.40
2019-03-13T13:37:15.526Z,9.20
2019-03-13T13:39:45.356Z,8.90
2019-03-13T13:42:12.215Z,8.70
2019-03-13T13:47:06.504Z,8.40
2019-03-13T13:49:33.273Z,8.40
2019-03-13T13:52:00.376Z,8.20
2019-03-13T14:01:48.574Z,7.50
2019-03-13T14:04:15.313Z,7.80
2019-03-13T14:06:42.308Z,8.20
2019-03-13T14:09:09.341Z,8.40
2019-03-13T14:11:36.456Z,12.70
2019-03-13T14:14:03.442Z,13.30
2019-03-13T14:16:30.322Z,14.00
2019-03-13T14:18:57.272Z,11.90
2019-03-13T14:21:25.629Z,10.10
2019-03-13T14:23:52.772Z,11.50
2019-03-13T14:26:19.736Z,12.50
2019-03-13T14:28:47.083Z,14.20
2019-03-13T14:31:13.888Z,14.30
2019-03-13T14:33:40.701Z,14.70
2019-03-13T14:36:07.816Z,14.00
2019-03-13T14:38:34.582Z,13.20
2019-03-13T14:41:01.631Z,11.20
2019-03-13T14:43:28.776Z,12.70
2019-03-13T14:45:55.982Z,11.30
2019-03-13T14:48:22.840Z,10.90
2019-03-13T14:50:49.800Z,10.50
2019-03-13T14:53:16.564Z,11.30
2019-03-13T14:55:43.690Z,10.70
2019-03-13T14:58:10.996Z,10.50
2019-03-13T15:00:38.386Z,9.50
2019-03-13T15:05:32.148Z,8.90
2019-03-13T15:10:26.140Z,8.30
2019-03-13T15:12:52.898Z,8.30
2019-03-13T15:17:46.977Z,8.50
2019-03-13T15:34:57.121Z,8.20
2019-03-13T15:37:23.891Z,8.30
2019-03-13T15:39:50.905Z,8.30
2019-03-13T15:42:17.778Z,8.30
2019-03-13T15:44:44.568Z,8.40
2019-03-13T15:47:11.429Z,8.40
2019-03-13T15:49:38.188Z,8.30
2019-03-13T15:52:05.049Z,8.40
2019-03-13T15:54:31.943Z,8.40
2019-03-13T15:56:58.934Z,8.40
2019-03-13T15:59:25.947Z,8.40
2019-03-13T16:01:53.225Z,8.50
2019-03-13T16:06:46.945Z,8.30
2019-03-13T16:09:13.736Z,8.40
2019-03-13T16:11:40.825Z,8.30
2019-03-13T16:14:07.586Z,8.20
2019-03-13T16:16:34.634Z,8.30
2019-03-13T16:19:01.448Z,8.20
2019-03-13T16:21:28.724Z,8.10
2019-03-13T16:23:55.609Z,8.00
2019-03-13T16:26:22.378Z,8.00
2019-03-13T16:28:49.144Z,8.20
2019-03-13T16:31:15.996Z,8.30
2019-03-13T16:33:42.990Z,8.20
2019-03-13T16:36:10.061Z,7.80
2019-03-13T16:38:36.860Z,7.70
2019-03-13T16:41:03.810Z,7.50
2019-03-13T16:58:13.304Z,7.20
2019-03-13T17:00:40.196Z,7.20
2019-03-13T17:03:07.332Z,7.20
2019-03-13T17:05:34.710Z,7.20
2019-03-13T17:08:01.509Z,7.20
2019-03-13T17:10:28.904Z,7.10
2019-03-13T17:12:56.180Z,7.00
2019-03-13T17:15:23.374Z,7.10
2019-03-13T17:17:50.325Z,6.90
2019-03-13T17:20:19.379Z,6.90
2019-03-13T17:22:46.350Z,6.90
2019-03-13T17:25:14.488Z,6.80
2019-03-13T17:27:41.374Z,6.80
2019-03-13T17:30:11.528Z,6.70
2019-03-13T17:32:38.525Z,6.70
2019-03-13T17:37:32.305Z,6.50
2019-03-13T17:39:59.160Z,6.40
2019-03-13T17:42:26.137Z,6.30
2019-03-13T17:44:53.166Z,6.20
2019-03-13T17:47:19.968Z,6.20
2019-03-13T17:49:46.952Z,6.20
2019-03-13T17:52:13.959Z,6.20
2019-03-13T17:54:40.811Z,6.30
2019-03-13T17:57:07.597Z,6.20
2019-03-13T17:59:34.592Z,6.20
2019-03-13T18:02:01.557Z,6.10
2019-03-13T18:04:28.574Z,6.20
2019-03-13T18:06:55.356Z,6.20
2019-03-13T18:09:22.237Z,6.20
2019-03-13T18:11:48.982Z,6.20
2019-03-13T18:14:15.770Z,5.80
2019-03-13T18:16:42.629Z,6.10
2019-03-13T18:19:09.961Z,6.10
2019-03-13T18:21:36.979Z,6.10
2019-03-13T18:24:03.965Z,6.10
2019-03-13T18:26:30.980Z,6.40
2019-03-13T18:28:57.757Z,6.50
2019-03-13T18:31:24.808Z,6.30
2019-03-13T18:33:51.829Z,6.20
2019-03-13T18:36:18.616Z,6.20
2019-03-13T18:38:45.419Z,6.10
2019-03-13T18:41:12.269Z,6.10
2019-03-13T18:43:39.274Z,6.10
2019-03-13T18:46:06.273Z,6.10
2019-03-13T18:48:33.085Z,6.10
2019-03-13T18:51:00.028Z,6.10
2019-03-13T18:53:26.944Z,6.10
2019-03-13T18:55:53.711Z,6.10
2019-03-13T18:58:20.637Z,6.00
2019-03-13T19:00:47.520Z,6.00
2019-03-13T19:03:14.551Z,6.10
2019-03-13T19:05:41.530Z,6.10
2019-03-13T19:08:08.443Z,6.10
2019-03-13T19:10:35.655Z,6.10
2019-03-13T19:13:02.765Z,6.00
2019-03-13T19:15:29.978Z,5.90
2019-03-13T19:18:00.271Z,5.80
2019-03-13T19:20:26.177Z,5.70
2019-03-13T19:22:53.392Z,5.70
2019-03-13T19:25:20.376Z,5.60
2019-03-13T19:27:47.597Z,5.70
2019-03-13T19:30:16.949Z,5.60
2019-03-13T19:32:44.286Z,5.60
2019-03-13T19:35:11.483Z,5.60
2019-03-13T19:37:38.729Z,5.60
2019-03-13T19:40:06.586Z,5.60
2019-03-13T19:42:33.558Z,5.60
2019-03-13T19:45:02.537Z,5.50
2019-03-13T19:47:29.319Z,5.50
2019-03-13T19:49:56.207Z,5.40
2019-03-13T19:52:23.389Z,5.40
2019-03-13T19:54:50.505Z,5.30
2019-03-13T19:57:17.544Z,5.20
2019-03-13T19:59:44.775Z,5.30
2019-03-13T20:02:11.981Z,5.20
2019-03-13T20:07:07.853Z,5.30
2019-03-13T20:09:34.962Z,5.30
2019-03-13T20:12:02.008Z,5.30
2019-03-13T20:14:28.869Z,5.30
2019-03-13T20:16:55.723Z,5.30
2019-03-13T20:19:22.589Z,5.30
2019-03-13T20:21:49.901Z,5.30
2019-03-13T20:24:16.729Z,5.30
2019-03-13T20:26:43.552Z,5.30
2019-03-13T20:29:10.565Z,5.20
2019-03-13T20:31:37.376Z,5.40
2019-03-13T20:34:04.363Z,5.10
2019-03-13T20:36:31.436Z,5.00
2019-03-13T20:41:25.741Z,5.10
2019-03-13T20:43:52.741Z,5.10
2019-03-13T20:48:47.079Z,5.10
2019-03-13T20:51:14.005Z,5.00
2019-03-13T20:53:41.151Z,5.00
2019-03-13T20:58:34.922Z,4.90
2019-03-13T21:01:01.895Z,4.80
2019-03-13T21:03:28.772Z,4.80
2019-03-13T21:05:55.688Z,4.70
2019-03-13T21:08:22.677Z,4.70
2019-03-13T21:10:49.445Z,4.70
2019-03-13T21:13:16.216Z,4.70
2019-03-13T21:15:43.880Z,4.70
2019-03-13T21:18:10.864Z,4.70
2019-03-13T21:20:37.835Z,4.60
2019-03-13T21:23:04.868Z,4.60
2019-03-13T21:25:31.823Z,4.50
2019-03-13T21:27:58.958Z,4.50
2019-03-13T21:30:26.131Z,4.40
2019-03-13T21:32:53.220Z,4.30
2019-03-13T21:35:20.466Z,4.30
2019-03-13T21:37:47.531Z,4.20
2019-03-13T21:40:14.813Z,4.20
2019-03-13T21:42:41.685Z,4.20
2019-03-13T21:45:21.241Z,4.20
2019-03-13T21:47:37.554Z,4.30
2019-03-13T21:50:04.909Z,4.20
2019-03-13T21:52:31.758Z,4.30
2019-03-13T21:54:58.572Z,4.30
2019-03-13T21:57:25.316Z,4.30
2019-03-13T21:59:52.293Z,4.30
2019-03-13T22:02:19.045Z,4.30
2019-03-13T22:04:45.805Z,4.30
2019-03-13T22:07:12.649Z,4.30
2019-03-13T22:09:39.411Z,4.30
2019-03-13T22:12:06.161Z,4.30
2019-03-13T22:14:33.218Z,4.30
2019-03-13T22:17:00.008Z,4.30
2019-03-13T22:19:27.109Z,4.20
2019-03-13T22:21:53.963Z,4.20
2019-03-13T22:24:20.729Z,4.20
2019-03-13T22:26:47.593Z,4.20
2019-03-13T22:29:14.350Z,4.20
2019-03-13T22:31:41.092Z,4.20
2019-03-13T22:34:07.957Z,4.20
2019-03-13T22:36:34.705Z,4.20
2019-03-13T22:39:01.664Z,4.30
2019-03-13T22:41:28.690Z,4.20
2019-03-13T22:43:55.684Z,4.30
2019-03-13T22:46:22.617Z,4.30
2019-03-13T22:48:58.267Z,4.30
2019-03-13T22:51:18.054Z,5.00
2019-03-13T22:53:44.823Z,2.80
2019-03-13T22:56:11.579Z,4.30
2019-03-13T22:58:38.573Z,4.30
2019-03-13T23:01:08.259Z,4.30
2019-03-13T23:03:35.296Z,4.30
2019-03-13T23:06:03.258Z,4.30
2019-03-13T23:08:31.193Z,4.30
2019-03-13T23:10:58.316Z,4.20
2019-03-13T23:13:25.434Z,4.20
2019-03-13T23:15:52.380Z,4.20
2019-03-13T23:18:19.139Z,4.20
2019-03-13T23:20:46.112Z,4.20
2019-03-13T23:23:12.961Z,4.20
2019-03-13T23:25:39.821Z,4.10
2019-03-13T23:28:06.785Z,4.10
2019-03-13T23:30:33.723Z,4.00
2019-03-13T23:33:00.563Z,4.00
2019-03-13T23:35:27.668Z,4.00
2019-03-13T23:37:54.429Z,4.00
2019-03-13T23:40:21.184Z,4.00
2019-03-13T23:42:48.208Z,4.00
2019-03-13T23:45:15.410Z,4.00
2019-03-13T23:47:42.765Z,4.00
2019-03-13T23:50:10.150Z,4.00
2019-03-13T23:52:36.909Z,4.00
2019-03-13T23:55:03.890Z,4.00
2019-03-13T23:57:31.239Z,4.00
2019-03-13T23:59:57.998Z,4.10
